sensor_id;sensor_type;location;lat;lon;timestamp;P1;durP1;ratioP1;P2;durP2;ratioP2
44854;SDS011;30591;48.228;16.398;2022-07-06T00:02:06;3.80;;;3.50;;
44854;SDS011;30591;48.228;16.398;2022-07-06T00:04:33;4.70;;;4.30;;
44854;SDS011;30591;48.228;16.398;2022-07-06T00:06:59;5.77;;;5.27;;
44854;SDS011;30591;48.228;16.398;2022-07-06T00:09:26;6.63;;;5.93;;
44854;SDS011;30591;48.228;16.398;2022-07-06T00:11:53;7.03;;;6.17;;
44854;SDS011;30591;48.228;16.398;2022-07-06T00:14:20;4.80;;;3.93;;
44854;SDS011;30591;48.228;16.398;2022-07-06T00:16:47;5.10;;;3.47;;
44854;SDS011;30591;48.228;16.398;2022-07-06T00:19:14;3.67;;;3.37;;
44854;SDS011;30591;48.228;16.398;2022-07-06T00:21:40;4.33;;;3.83;;
44854;SDS011;30591;48.228;16.398;2022-07-06T00:24:07;12.17;;;8.17;;
44854;SDS011;30591;48.228;16.398;2022-07-06T00:26:34;10.10;;;7.50;;
44854;SDS011;30591;48.228;16.398;2022-07-06T00:29:02;5.87;;;4.67;;
44854;SDS011;30591;48.228;16.398;2022-07-06T00:31:29;4.30;;;3.77;;
44854;SDS011;30591;48.228;16.398;2022-07-06T00:33:56;5.60;;;3.93;;
44854;SDS011;30591;48.228;16.398;2022-07-06T00:36:23;4.23;;;3.90;;
44854;SDS011;30591;48.228;16.398;2022-07-06T00:38:49;4.27;;;3.87;;
44854;SDS011;30591;48.228;16.398;2022-07-06T00:41:16;4.33;;;3.93;;
44854;SDS011;30591;48.228;16.398;2022-07-06T00:43:47;7.63;;;5.03;;
44854;SDS011;30591;48.228;16.398;2022-07-06T00:46:15;13.40;;;7.87;;
44854;SDS011;30591;48.228;16.398;2022-07-06T00:48:42;5.80;;;5.30;;
44854;SDS011;30591;48.228;16.398;2022-07-06T00:51:09;4.77;;;4.27;;
44854;SDS011;30591;48.228;16.398;2022-07-06T00:53:37;4.40;;;4.00;;
44854;SDS011;30591;48.228;16.398;2022-07-06T00:56:05;4.67;;;4.27;;
44854;SDS011;30591;48.228;16.398;2022-07-06T00:58:32;5.20;;;4.70;;
44854;SDS011;30591;48.228;16.398;2022-07-06T01:00:59;8.40;;;7.40;;
44854;SDS011;30591;48.228;16.398;2022-07-06T01:03:26;6.67;;;5.60;;
44854;SDS011;30591;48.228;16.398;2022-07-06T01:05:53;7.03;;;6.10;;
44854;SDS011;30591;48.228;16.398;2022-07-06T01:08:20;7.60;;;6.90;;
44854;SDS011;30591;48.228;16.398;2022-07-06T01:10:48;6.33;;;5.83;;
44854;SDS011;30591;48.228;16.398;2022-07-06T01:13:15;8.03;;;6.53;;
44854;SDS011;30591;48.228;16.398;2022-07-06T01:15:42;7.27;;;6.57;;
44854;SDS011;30591;48.228;16.398;2022-07-06T01:18:09;7.63;;;6.53;;
44854;SDS011;30591;48.228;16.398;2022-07-06T01:20:38;7.27;;;6.57;;
44854;SDS011;30591;48.228;16.398;2022-07-06T01:23:04;7.30;;;6.70;;
44854;SDS011;30591;48.228;16.398;2022-07-06T01:25:32;7.73;;;7.10;;
44854;SDS011;30591;48.228;16.398;2022-07-06T01:27:59;7.13;;;6.50;;
44854;SDS011;30591;48.228;16.398;2022-07-06T01:30:26;7.20;;;6.70;;
44854;SDS011;30591;48.228;16.398;2022-07-06T01:32:53;7.87;;;7.17;;
44854;SDS011;30591;48.228;16.398;2022-07-06T01:35:19;7.97;;;7.27;;
44854;SDS011;30591;48.228;16.398;2022-07-06T01:37:46;8.00;;;7.10;;
44854;SDS011;30591;48.228;16.398;2022-07-06T01:40:13;7.30;;;6.80;;
44854;SDS011;30591;48.228;16.398;2022-07-06T01:42:40;7.60;;;6.83;;
44854;SDS011;30591;48.228;16.398;2022-07-06T01:45:07;7.53;;;6.93;;
44854;SDS011;30591;48.228;16.398;2022-07-06T01:47:36;7.20;;;6.60;;
44854;SDS011;30591;48.228;16.398;2022-07-06T01:50:07;8.13;;;6.70;;
44854;SDS011;30591;48.228;16.398;2022-07-06T01:52:39;6.37;;;5.77;;
44854;SDS011;30591;48.228;16.398;2022-07-06T01:55:06;8.90;;;6.27;;
44854;SDS011;30591;48.228;16.398;2022-07-06T01:57:35;7.00;;;6.40;;
44854;SDS011;30591;48.228;16.398;2022-07-06T02:00:04;6.43;;;5.83;;
44854;SDS011;30591;48.228;16.398;2022-07-06T02:02:37;6.47;;;5.97;;
44854;SDS011;30591;48.228;16.398;2022-07-06T02:05:05;6.33;;;5.83;;
44854;SDS011;30591;48.228;16.398;2022-07-06T02:07:32;7.33;;;6.40;;
44854;SDS011;30591;48.228;16.398;2022-07-06T02:10:00;7.53;;;6.23;;
44854;SDS011;30591;48.228;16.398;2022-07-06T02:12:27;7.33;;;6.17;;
44854;SDS011;30591;48.228;16.398;2022-07-06T02:14:54;7.43;;;6.73;;
44854;SDS011;30591;48.228;16.398;2022-07-06T02:17:21;7.93;;;6.80;;
44854;SDS011;30591;48.228;16.398;2022-07-06T02:19:49;6.50;;;6.00;;
44854;SDS011;30591;48.228;16.398;2022-07-06T02:22:15;6.33;;;5.83;;
44854;SDS011;30591;48.228;16.398;2022-07-06T02:24:42;6.53;;;5.93;;
44854;SDS011;30591;48.228;16.398;2022-07-06T02:27:10;6.60;;;6.10;;
44854;SDS011;30591;48.228;16.398;2022-07-06T02:29:37;6.57;;;5.97;;
44854;SDS011;30591;48.228;16.398;2022-07-06T02:32:06;6.90;;;6.20;;
44854;SDS011;30591;48.228;16.398;2022-07-06T02:34:33;7.20;;;6.53;;
44854;SDS011;30591;48.228;16.398;2022-07-06T02:37:01;7.10;;;6.50;;
44854;SDS011;30591;48.228;16.398;2022-07-06T02:39:28;7.33;;;6.73;;
44854;SDS011;30591;48.228;16.398;2022-07-06T02:41:56;7.17;;;6.67;;
44854;SDS011;30591;48.228;16.398;2022-07-06T02:44:23;9.80;;;7.03;;
44854;SDS011;30591;48.228;16.398;2022-07-06T02:46:50;6.77;;;6.27;;
44854;SDS011;30591;48.228;16.398;2022-07-06T02:49:18;8.07;;;6.60;;
44854;SDS011;30591;48.228;16.398;2022-07-06T02:51:45;7.17;;;6.50;;
44854;SDS011;30591;48.228;16.398;2022-07-06T02:54:12;8.33;;;6.63;;
44854;SDS011;30591;48.228;16.398;2022-07-06T02:56:39;6.70;;;6.20;;
44854;SDS011;30591;48.228;16.398;2022-07-06T02:59:08;8.73;;;6.30;;
44854;SDS011;30591;48.228;16.398;2022-07-06T03:01:40;7.97;;;7.27;;
44854;SDS011;30591;48.228;16.398;2022-07-06T03:04:07;7.70;;;6.73;;
44854;SDS011;30591;48.228;16.398;2022-07-06T03:06:34;6.80;;;6.20;;
44854;SDS011;30591;48.228;16.398;2022-07-06T03:09:01;7.63;;;6.83;;
44854;SDS011;30591;48.228;16.398;2022-07-06T03:11:29;7.63;;;6.83;;
44854;SDS011;30591;48.228;16.398;2022-07-06T03:13:56;6.47;;;6.03;;
44854;SDS011;30591;48.228;16.398;2022-07-06T03:16:23;7.00;;;6.40;;
44854;SDS011;30591;48.228;16.398;2022-07-06T03:18:50;7.37;;;6.67;;
44854;SDS011;30591;48.228;16.398;2022-07-06T03:21:17;6.80;;;6.30;;
44854;SDS011;30591;48.228;16.398;2022-07-06T03:23:44;7.10;;;6.47;;
44854;SDS011;30591;48.228;16.398;2022-07-06T03:26:11;7.20;;;6.37;;
44854;SDS011;30591;48.228;16.398;2022-07-06T03:28:38;10.03;;;6.33;;
44854;SDS011;30591;48.228;16.398;2022-07-06T03:31:05;6.97;;;6.37;;
44854;SDS011;30591;48.228;16.398;2022-07-06T03:33:33;7.27;;;6.67;;
44854;SDS011;30591;48.228;16.398;2022-07-06T03:36:00;6.23;;;5.63;;
44854;SDS011;30591;48.228;16.398;2022-07-06T03:38:27;7.23;;;5.70;;
44854;SDS011;30591;48.228;16.398;2022-07-06T03:40:55;5.63;;;5.17;;
44854;SDS011;30591;48.228;16.398;2022-07-06T03:43:21;5.97;;;5.50;;
44854;SDS011;30591;48.228;16.398;2022-07-06T03:45:49;5.73;;;5.33;;
44854;SDS011;30591;48.228;16.398;2022-07-06T03:48:17;6.17;;;5.50;;
44854;SDS011;30591;48.228;16.398;2022-07-06T03:50:44;7.57;;;5.40;;
44854;SDS011;30591;48.228;16.398;2022-07-06T03:53:11;5.10;;;4.70;;
44854;SDS011;30591;48.228;16.398;2022-07-06T03:55:38;7.07;;;4.67;;
44854;SDS011;30591;48.228;16.398;2022-07-06T03:58:08;5.40;;;4.90;;
44854;SDS011;30591;48.228;16.398;2022-07-06T04:00:37;5.33;;;4.77;;
44854;SDS011;30591;48.228;16.398;2022-07-06T04:03:09;6.00;;;4.53;;
44854;SDS011;30591;48.228;16.398;2022-07-06T04:05:44;5.87;;;5.10;;
44854;SDS011;30591;48.228;16.398;2022-07-06T04:08:11;5.33;;;4.63;;
44854;SDS011;30591;48.228;16.398;2022-07-06T04:10:43;5.33;;;4.83;;
44854;SDS011;30591;48.228;16.398;2022-07-06T04:13:10;5.60;;;4.50;;
44854;SDS011;30591;48.228;16.398;2022-07-06T04:15:38;4.93;;;4.43;;
44854;SDS011;30591;48.228;16.398;2022-07-06T04:18:06;7.13;;;5.17;;
44854;SDS011;30591;48.228;16.398;2022-07-06T04:20:39;7.53;;;5.33;;
44854;SDS011;30591;48.228;16.398;2022-07-06T04:23:06;8.23;;;5.57;;
44854;SDS011;30591;48.228;16.398;2022-07-06T04:25:33;9.67;;;5.77;;
44854;SDS011;30591;48.228;16.398;2022-07-06T04:28:01;8.73;;;5.20;;
44854;SDS011;30591;48.228;16.398;2022-07-06T04:30:30;6.97;;;5.63;;
44854;SDS011;30591;48.228;16.398;2022-07-06T04:32:57;5.93;;;5.00;;
44854;SDS011;30591;48.228;16.398;2022-07-06T04:35:27;5.13;;;4.80;;
44854;SDS011;30591;48.228;16.398;2022-07-06T04:37:55;5.40;;;4.90;;
44854;SDS011;30591;48.228;16.398;2022-07-06T04:40:22;7.33;;;5.63;;
44854;SDS011;30591;48.228;16.398;2022-07-06T04:42:54;5.80;;;5.30;;
44854;SDS011;30591;48.228;16.398;2022-07-06T04:45:22;8.53;;;4.80;;
44854;SDS011;30591;48.228;16.398;2022-07-06T04:47:49;5.77;;;5.17;;
44854;SDS011;30591;48.228;16.398;2022-07-06T04:50:17;5.60;;;5.10;;
44854;SDS011;30591;48.228;16.398;2022-07-06T04:52:45;6.33;;;5.10;;
44854;SDS011;30591;48.228;16.398;2022-07-06T04:55:12;7.43;;;5.47;;
44854;SDS011;30591;48.228;16.398;2022-07-06T04:57:41;7.10;;;5.20;;
44854;SDS011;30591;48.228;16.398;2022-07-06T05:00:10;7.83;;;5.27;;
44854;SDS011;30591;48.228;16.398;2022-07-06T05:02:37;7.87;;;5.03;;
44854;SDS011;30591;48.228;16.398;2022-07-06T05:05:04;7.80;;;5.23;;
44854;SDS011;30591;48.228;16.398;2022-07-06T05:07:32;5.53;;;5.00;;
44854;SDS011;30591;48.228;16.398;2022-07-06T05:10:01;5.50;;;4.60;;
44854;SDS011;30591;48.228;16.398;2022-07-06T05:12:30;5.60;;;5.10;;
44854;SDS011;30591;48.228;16.398;2022-07-06T05:14:59;5.13;;;4.70;;
44854;SDS011;30591;48.228;16.398;2022-07-06T05:17:26;5.33;;;4.83;;
44854;SDS011;30591;48.228;16.398;2022-07-06T05:19:57;7.50;;;4.33;;
44854;SDS011;30591;48.228;16.398;2022-07-06T05:22:24;4.87;;;3.77;;
44854;SDS011;30591;48.228;16.398;2022-07-06T05:24:52;9.83;;;4.47;;
44854;SDS011;30591;48.228;16.398;2022-07-06T05:27:19;10.50;;;4.53;;
44854;SDS011;30591;48.228;16.398;2022-07-06T05:29:48;8.30;;;3.80;;
44854;SDS011;30591;48.228;16.398;2022-07-06T05:32:15;9.00;;;3.80;;
44854;SDS011;30591;48.228;16.398;2022-07-06T05:34:42;5.10;;;3.27;;
44854;SDS011;30591;48.228;16.398;2022-07-06T05:37:10;6.03;;;3.60;;
44854;SDS011;30591;48.228;16.398;2022-07-06T05:39:37;10.77;;;3.90;;
44854;SDS011;30591;48.228;16.398;2022-07-06T05:42:08;7.30;;;5.80;;
44854;SDS011;30591;48.228;16.398;2022-07-06T05:44:36;8.53;;;4.47;;
44854;SDS011;30591;48.228;16.398;2022-07-06T05:47:03;7.97;;;5.27;;
44854;SDS011;30591;48.228;16.398;2022-07-06T05:49:49;9.93;;;4.73;;
44854;SDS011;30591;48.228;16.398;2022-07-06T05:52:36;4.63;;;3.87;;
44854;SDS011;30591;48.228;16.398;2022-07-06T05:55:03;3.80;;;3.40;;
44854;SDS011;30591;48.228;16.398;2022-07-06T05:57:31;4.57;;;3.50;;
44854;SDS011;30591;48.228;16.398;2022-07-06T05:59:58;3.57;;;3.27;;
44854;SDS011;30591;48.228;16.398;2022-07-06T06:02:26;4.82;;;3.15;;
44854;SDS011;30591;48.228;16.398;2022-07-06T06:04:53;5.78;;;3.85;;
44854;SDS011;30591;48.228;16.398;2022-07-06T06:07:20;8.15;;;4.05;;
44854;SDS011;30591;48.228;16.398;2022-07-06T06:09:47;8.87;;;4.30;;
44854;SDS011;30591;48.228;16.398;2022-07-06T06:12:14;7.63;;;5.30;;
44854;SDS011;30591;48.228;16.398;2022-07-06T06:14:41;7.75;;;3.40;;
44854;SDS011;30591;48.228;16.398;2022-07-06T06:17:08;11.10;;;3.75;;
44854;SDS011;30591;48.228;16.398;2022-07-06T06:19:36;5.25;;;3.63;;
44854;SDS011;30591;48.228;16.398;2022-07-06T06:22:03;6.68;;;3.40;;
44854;SDS011;30591;48.228;16.398;2022-07-06T06:24:30;5.28;;;3.28;;
44854;SDS011;30591;48.228;16.398;2022-07-06T06:26:57;8.38;;;4.25;;
44854;SDS011;30591;48.228;16.398;2022-07-06T06:29:25;5.80;;;3.60;;
44854;SDS011;30591;48.228;16.398;2022-07-06T06:31:53;7.75;;;3.60;;
44854;SDS011;30591;48.228;16.398;2022-07-06T06:34:20;4.03;;;3.45;;
44854;SDS011;30591;48.228;16.398;2022-07-06T06:36:47;4.20;;;3.80;;
44854;SDS011;30591;48.228;16.398;2022-07-06T06:39:14;4.25;;;3.85;;
44854;SDS011;30591;48.228;16.398;2022-07-06T06:41:41;4.30;;;3.90;;
44854;SDS011;30591;48.228;16.398;2022-07-06T06:44:07;12.23;;;4.37;;
44854;SDS011;30591;48.228;16.398;2022-07-06T06:46:39;3.80;;;3.50;;
44854;SDS011;30591;48.228;16.398;2022-07-06T06:49:07;3.80;;;3.50;;
44854;SDS011;30591;48.228;16.398;2022-07-06T06:51:34;4.05;;;3.55;;
44854;SDS011;30591;48.228;16.398;2022-07-06T06:54:02;4.43;;;4.03;;
44854;SDS011;30591;48.228;16.398;2022-07-06T06:56:29;10.07;;;4.10;;
44854;SDS011;30591;48.228;16.398;2022-07-06T06:58:56;4.57;;;3.80;;
44854;SDS011;30591;48.228;16.398;2022-07-06T07:01:42;4.00;;;3.70;;
44854;SDS011;30591;48.228;16.398;2022-07-06T07:04:09;4.40;;;3.93;;
44854;SDS011;30591;48.228;16.398;2022-07-06T07:06:36;7.80;;;4.40;;
44854;SDS011;30591;48.228;16.398;2022-07-06T07:09:03;6.80;;;3.83;;
44854;SDS011;30591;48.228;16.398;2022-07-06T07:11:31;6.47;;;3.77;;
44854;SDS011;30591;48.228;16.398;2022-07-06T07:13:57;5.27;;;3.73;;
44854;SDS011;30591;48.228;16.398;2022-07-06T07:16:26;4.87;;;4.10;;
44854;SDS011;30591;48.228;16.398;2022-07-06T07:18:54;5.40;;;3.90;;
44854;SDS011;30591;48.228;16.398;2022-07-06T07:21:20;4.43;;;4.00;;
44854;SDS011;30591;48.228;16.398;2022-07-06T07:23:47;5.13;;;3.70;;
44854;SDS011;30591;48.228;16.398;2022-07-06T07:26:16;4.38;;;3.22;;
44854;SDS011;30591;48.228;16.398;2022-07-06T07:28:43;5.68;;;3.78;;
44854;SDS011;30591;48.228;16.398;2022-07-06T07:31:10;5.68;;;3.75;;
44854;SDS011;30591;48.228;16.398;2022-07-06T07:33:37;3.75;;;3.45;;
44854;SDS011;30591;48.228;16.398;2022-07-06T07:36:04;4.50;;;4.10;;
44854;SDS011;30591;48.228;16.398;2022-07-06T07:38:31;8.38;;;3.80;;
44854;SDS011;30591;48.228;16.398;2022-07-06T07:40:58;3.97;;;3.67;;
44854;SDS011;30591;48.228;16.398;2022-07-06T07:43:25;4.25;;;3.72;;
44854;SDS011;30591;48.228;16.398;2022-07-06T07:45:52;4.03;;;3.72;;
44854;SDS011;30591;48.228;16.398;2022-07-06T07:48:18;4.80;;;3.50;;
44854;SDS011;30591;48.228;16.398;2022-07-06T07:50:46;5.55;;;3.33;;
44854;SDS011;30591;48.228;16.398;2022-07-06T07:53:13;4.43;;;3.50;;
44854;SDS011;30591;48.228;16.398;2022-07-06T07:55:40;3.72;;;3.40;;
44854;SDS011;30591;48.228;16.398;2022-07-06T07:58:08;4.32;;;3.47;;
44854;SDS011;30591;48.228;16.398;2022-07-06T08:00:35;6.57;;;3.75;;
44854;SDS011;30591;48.228;16.398;2022-07-06T08:03:02;4.05;;;3.65;;
44854;SDS011;30591;48.228;16.398;2022-07-06T08:05:30;5.18;;;3.30;;
44854;SDS011;30591;48.228;16.398;2022-07-06T08:07:56;6.38;;;3.45;;
44854;SDS011;30591;48.228;16.398;2022-07-06T08:10:23;4.35;;;3.95;;
44854;SDS011;30591;48.228;16.398;2022-07-06T08:12:50;3.70;;;3.40;;
44854;SDS011;30591;48.228;16.398;2022-07-06T08:15:17;7.13;;;3.70;;
44854;SDS011;30591;48.228;16.398;2022-07-06T08:17:44;7.93;;;3.40;;
44854;SDS011;30591;48.228;16.398;2022-07-06T08:20:11;4.80;;;3.65;;
44854;SDS011;30591;48.228;16.398;2022-07-06T08:22:38;4.38;;;3.60;;
44854;SDS011;30591;48.228;16.398;2022-07-06T08:25:06;3.80;;;3.50;;
44854;SDS011;30591;48.228;16.398;2022-07-06T08:27:33;4.82;;;3.50;;
44854;SDS011;30591;48.228;16.398;2022-07-06T08:30:01;5.70;;;3.92;;
44854;SDS011;30591;48.228;16.398;2022-07-06T08:32:32;3.38;;;3.17;;
44854;SDS011;30591;48.228;16.398;2022-07-06T08:35:18;4.65;;;3.53;;
44854;SDS011;30591;48.228;16.398;2022-07-06T08:37:45;4.90;;;3.53;;
44854;SDS011;30591;48.228;16.398;2022-07-06T08:40:12;3.88;;;3.35;;
44854;SDS011;30591;48.228;16.398;2022-07-06T08:42:40;3.63;;;3.33;;
44854;SDS011;30591;48.228;16.398;2022-07-06T08:45:09;4.30;;;3.90;;
44854;SDS011;30591;48.228;16.398;2022-07-06T08:47:36;4.40;;;3.70;;
44854;SDS011;30591;48.228;16.398;2022-07-06T08:50:04;5.97;;;3.50;;
44854;SDS011;30591;48.228;16.398;2022-07-06T08:52:31;3.70;;;3.40;;
44854;SDS011;30591;48.228;16.398;2022-07-06T08:54:59;4.22;;;3.25;;
44854;SDS011;30591;48.228;16.398;2022-07-06T08:57:27;4.70;;;3.35;;
44854;SDS011;30591;48.228;16.398;2022-07-06T08:59:55;4.03;;;3.40;;
44854;SDS011;30591;48.228;16.398;2022-07-06T09:02:24;3.67;;;3.35;;
44854;SDS011;30591;48.228;16.398;2022-07-06T09:04:55;4.50;;;3.33;;
44854;SDS011;30591;48.228;16.398;2022-07-06T09:07:25;4.32;;;3.25;;
44854;SDS011;30591;48.228;16.398;2022-07-06T09:10:15;4.63;;;3.83;;
44854;SDS011;30591;48.228;16.398;2022-07-06T09:12:44;5.65;;;3.50;;
44854;SDS011;30591;48.228;16.398;2022-07-06T09:15:11;5.43;;;3.80;;
44854;SDS011;30591;48.228;16.398;2022-07-06T09:17:38;5.28;;;3.65;;
44854;SDS011;30591;48.228;16.398;2022-07-06T09:20:07;4.00;;;3.70;;
44854;SDS011;30591;48.228;16.398;2022-07-06T09:22:35;5.65;;;3.85;;
44854;SDS011;30591;48.228;16.398;2022-07-06T09:25:10;4.93;;;4.03;;
44854;SDS011;30591;48.228;16.398;2022-07-06T09:27:39;4.55;;;3.75;;
44854;SDS011;30591;48.228;16.398;2022-07-06T09:30:14;10.32;;;4.32;;
44854;SDS011;30591;48.228;16.398;2022-07-06T09:32:46;4.95;;;3.80;;
44854;SDS011;30591;48.228;16.398;2022-07-06T09:38:05;4.32;;;3.95;;
44854;SDS011;30591;48.228;16.398;2022-07-06T09:40:36;4.10;;;3.75;;
44854;SDS011;30591;48.228;16.398;2022-07-06T09:43:17;4.07;;;3.65;;
44854;SDS011;30591;48.228;16.398;2022-07-06T09:45:49;4.75;;;3.63;;
44854;SDS011;30591;48.228;16.398;2022-07-06T09:50:50;4.78;;;4.10;;
44854;SDS011;30591;48.228;16.398;2022-07-06T09:53:20;4.72;;;4.13;;
44854;SDS011;30591;48.228;16.398;2022-07-06T09:55:49;7.28;;;4.10;;
44854;SDS011;30591;48.228;16.398;2022-07-06T09:58:17;4.70;;;4.30;;
44854;SDS011;30591;48.228;16.398;2022-07-06T10:01:05;6.90;;;4.60;;
44854;SDS011;30591;48.228;16.398;2022-07-06T10:03:32;4.55;;;4.15;;
44854;SDS011;30591;48.228;16.398;2022-07-06T10:05:59;5.88;;;4.43;;
44854;SDS011;30591;48.228;16.398;2022-07-06T10:08:26;6.03;;;4.10;;
44854;SDS011;30591;48.228;16.398;2022-07-06T10:10:55;5.45;;;4.28;;
44854;SDS011;30591;48.228;16.398;2022-07-06T10:13:22;4.40;;;4.00;;
44854;SDS011;30591;48.228;16.398;2022-07-06T10:15:52;4.65;;;3.63;;
44854;SDS011;30591;48.228;16.398;2022-07-06T10:18:20;7.85;;;4.03;;
44854;SDS011;30591;48.228;16.398;2022-07-06T10:20:48;4.38;;;3.90;;
44854;SDS011;30591;48.228;16.398;2022-07-06T10:23:15;4.30;;;3.58;;
44854;SDS011;30591;48.228;16.398;2022-07-06T10:25:43;4.07;;;3.78;;
44854;SDS011;30591;48.228;16.398;2022-07-06T10:28:11;4.22;;;3.83;;
44854;SDS011;30591;48.228;16.398;2022-07-06T10:30:41;5.88;;;3.70;;
44854;SDS011;30591;48.228;16.398;2022-07-06T10:33:09;3.58;;;3.30;;
44854;SDS011;30591;48.228;16.398;2022-07-06T10:35:39;6.82;;;4.00;;
44854;SDS011;30591;48.228;16.398;2022-07-06T10:38:08;3.58;;;3.30;;
44854;SDS011;30591;48.228;16.398;2022-07-06T10:40:37;4.43;;;3.55;;
44854;SDS011;30591;48.228;16.398;2022-07-06T10:43:23;3.83;;;3.42;;
44854;SDS011;30591;48.228;16.398;2022-07-06T10:46:10;3.60;;;3.30;;
44854;SDS011;30591;48.228;16.398;2022-07-06T10:48:43;7.40;;;3.88;;
44854;SDS011;30591;48.228;16.398;2022-07-06T10:51:11;3.97;;;3.55;;
44854;SDS011;30591;48.228;16.398;2022-07-06T10:53:58;4.82;;;3.47;;
44854;SDS011;30591;48.228;16.398;2022-07-06T10:56:31;5.78;;;3.65;;
44854;SDS011;30591;48.228;16.398;2022-07-06T10:59:23;7.55;;;3.97;;
44854;SDS011;30591;48.228;16.398;2022-07-06T11:02:11;4.10;;;3.10;;
44854;SDS011;30591;48.228;16.398;2022-07-06T11:04:46;4.05;;;3.40;;
44854;SDS011;30591;48.228;16.398;2022-07-06T11:07:15;5.43;;;2.75;;
44854;SDS011;30591;48.228;16.398;2022-07-06T11:09:56;10.63;;;2.95;;
44854;SDS011;30591;48.228;16.398;2022-07-06T11:12:24;9.30;;;2.70;;
44854;SDS011;30591;48.228;16.398;2022-07-06T11:14:52;2.78;;;2.05;;
44854;SDS011;30591;48.228;16.398;2022-07-06T11:17:20;2.75;;;2.08;;
44854;SDS011;30591;48.228;16.398;2022-07-06T11:19:50;3.47;;;2.30;;
44854;SDS011;30591;48.228;16.398;2022-07-06T11:22:22;4.70;;;2.17;;
44854;SDS011;30591;48.228;16.398;2022-07-06T11:24:50;4.95;;;2.10;;
44854;SDS011;30591;48.228;16.398;2022-07-06T11:27:22;5.28;;;2.50;;
44854;SDS011;30591;48.228;16.398;2022-07-06T11:29:49;5.40;;;2.47;;
44854;SDS011;30591;48.228;16.398;2022-07-06T11:32:20;8.65;;;3.05;;
44854;SDS011;30591;48.228;16.398;2022-07-06T11:34:50;4.72;;;2.40;;
44854;SDS011;30591;48.228;16.398;2022-07-06T11:37:18;8.75;;;3.42;;
44854;SDS011;30591;48.228;16.398;2022-07-06T11:39:47;5.97;;;2.60;;
44854;SDS011;30591;48.228;16.398;2022-07-06T11:42:15;5.47;;;3.00;;
44854;SDS011;30591;48.228;16.398;2022-07-06T11:44:45;6.95;;;3.10;;
44854;SDS011;30591;48.228;16.398;2022-07-06T11:47:12;4.30;;;2.85;;
44854;SDS011;30591;48.228;16.398;2022-07-06T11:49:49;4.93;;;3.08;;
44854;SDS011;30591;48.228;16.398;2022-07-06T11:52:17;5.63;;;2.70;;
44854;SDS011;30591;48.228;16.398;2022-07-06T11:54:43;3.30;;;3.08;;
44854;SDS011;30591;48.228;16.398;2022-07-06T11:57:11;4.97;;;2.58;;
44854;SDS011;30591;48.228;16.398;2022-07-06T11:59:39;4.68;;;2.80;;
44854;SDS011;30591;48.228;16.398;2022-07-06T12:02:08;6.93;;;2.90;;
44854;SDS011;30591;48.228;16.398;2022-07-06T12:04:40;5.50;;;2.75;;
44854;SDS011;30591;48.228;16.398;2022-07-06T12:07:10;5.43;;;2.72;;
44854;SDS011;30591;48.228;16.398;2022-07-06T12:09:42;3.15;;;2.80;;
44854;SDS011;30591;48.228;16.398;2022-07-06T12:12:10;3.55;;;2.88;;
44854;SDS011;30591;48.228;16.398;2022-07-06T12:14:39;3.85;;;2.85;;
44854;SDS011;30591;48.228;16.398;2022-07-06T12:17:07;5.85;;;3.28;;
44854;SDS011;30591;48.228;16.398;2022-07-06T12:19:42;5.82;;;3.35;;
44854;SDS011;30591;48.228;16.398;2022-07-06T12:22:10;3.38;;;3.17;;
44854;SDS011;30591;48.228;16.398;2022-07-06T12:24:37;4.18;;;2.70;;
44854;SDS011;30591;48.228;16.398;2022-07-06T12:27:19;3.78;;;2.53;;
44854;SDS011;30591;48.228;16.398;2022-07-06T12:29:47;2.90;;;2.60;;
44854;SDS011;30591;48.228;16.398;2022-07-06T12:32:21;4.30;;;2.42;;
44854;SDS011;30591;48.228;16.398;2022-07-06T12:35:02;2.13;;;2.03;;
44854;SDS011;30591;48.228;16.398;2022-07-06T12:37:30;3.85;;;2.90;;
44854;SDS011;30591;48.228;16.398;2022-07-06T12:39:57;3.28;;;2.45;;
44854;SDS011;30591;48.228;16.398;2022-07-06T12:42:24;3.55;;;2.55;;
44854;SDS011;30591;48.228;16.398;2022-07-06T12:44:52;2.58;;;2.20;;
44854;SDS011;30591;48.228;16.398;2022-07-06T12:47:23;2.50;;;2.25;;
44854;SDS011;30591;48.228;16.398;2022-07-06T12:50:04;2.65;;;2.45;;
44854;SDS011;30591;48.228;16.398;2022-07-06T12:52:35;2.55;;;2.40;;
44854;SDS011;30591;48.228;16.398;2022-07-06T12:55:03;2.45;;;2.28;;
44854;SDS011;30591;48.228;16.398;2022-07-06T12:57:44;2.92;;;2.53;;
44854;SDS011;30591;48.228;16.398;2022-07-06T13:00:12;3.50;;;2.40;;
44854;SDS011;30591;48.228;16.398;2022-07-06T13:02:39;3.67;;;2.70;;
44854;SDS011;30591;48.228;16.398;2022-07-06T13:05:27;2.70;;;2.50;;
44854;SDS011;30591;48.228;16.398;2022-07-06T13:07:54;2.63;;;2.42;;
44854;SDS011;30591;48.228;16.398;2022-07-06T13:10:23;4.63;;;2.70;;
44854;SDS011;30591;48.228;16.398;2022-07-06T13:12:50;3.92;;;2.28;;
44854;SDS011;30591;48.228;16.398;2022-07-06T13:15:18;2.60;;;2.40;;
44854;SDS011;30591;48.228;16.398;2022-07-06T13:17:45;2.58;;;2.38;;
44854;SDS011;30591;48.228;16.398;2022-07-06T13:20:12;3.25;;;2.42;;
44854;SDS011;30591;48.228;16.398;2022-07-06T13:22:40;3.15;;;2.88;;
44854;SDS011;30591;48.228;16.398;2022-07-06T13:25:07;3.63;;;2.70;;
44854;SDS011;30591;48.228;16.398;2022-07-06T13:27:34;4.20;;;2.47;;
44854;SDS011;30591;48.228;16.398;2022-07-06T13:30:02;2.53;;;2.33;;
44854;SDS011;30591;48.228;16.398;2022-07-06T13:32:29;7.60;;;2.63;;
44854;SDS011;30591;48.228;16.398;2022-07-06T13:34:56;4.30;;;3.00;;
44854;SDS011;30591;48.228;16.398;2022-07-06T13:37:23;3.92;;;2.75;;
44854;SDS011;30591;48.228;16.398;2022-07-06T13:39:50;4.85;;;2.80;;
44854;SDS011;30591;48.228;16.398;2022-07-06T13:42:17;4.72;;;2.60;;
44854;SDS011;30591;48.228;16.398;2022-07-06T13:44:44;3.20;;;2.67;;
44854;SDS011;30591;48.228;16.398;2022-07-06T13:47:10;2.75;;;2.55;;
44854;SDS011;30591;48.228;16.398;2022-07-06T13:49:37;3.35;;;2.38;;
44854;SDS011;30591;48.228;16.398;2022-07-06T13:52:04;3.58;;;2.42;;
44854;SDS011;30591;48.228;16.398;2022-07-06T13:54:32;4.00;;;2.35;;
44854;SDS011;30591;48.228;16.398;2022-07-06T13:57:02;2.88;;;2.60;;
44854;SDS011;30591;48.228;16.398;2022-07-06T13:59:31;6.20;;;3.45;;
44854;SDS011;30591;48.228;16.398;2022-07-06T14:01:58;4.53;;;2.50;;
44854;SDS011;30591;48.228;16.398;2022-07-06T14:04:25;3.53;;;2.60;;
44854;SDS011;30591;48.228;16.398;2022-07-06T14:06:52;7.65;;;5.60;;
44854;SDS011;30591;48.228;16.398;2022-07-06T14:09:19;3.05;;;2.70;;
44854;SDS011;30591;48.228;16.398;2022-07-06T14:11:46;2.40;;;2.28;;
44854;SDS011;30591;48.228;16.398;2022-07-06T14:14:13;2.63;;;2.20;;
44854;SDS011;30591;48.228;16.398;2022-07-06T14:16:40;4.78;;;2.47;;
44854;SDS011;30591;48.228;16.398;2022-07-06T14:19:07;3.53;;;2.20;;
44854;SDS011;30591;48.228;16.398;2022-07-06T14:21:34;4.90;;;2.45;;
44854;SDS011;30591;48.228;16.398;2022-07-06T14:24:01;2.45;;;2.00;;
44854;SDS011;30591;48.228;16.398;2022-07-06T14:26:29;4.93;;;2.38;;
44854;SDS011;30591;48.228;16.398;2022-07-06T14:28:56;3.63;;;2.40;;
44854;SDS011;30591;48.228;16.398;2022-07-06T14:31:23;3.00;;;2.30;;
44854;SDS011;30591;48.228;16.398;2022-07-06T14:33:50;2.42;;;2.22;;
44854;SDS011;30591;48.228;16.398;2022-07-06T14:36:17;3.95;;;2.70;;
44854;SDS011;30591;48.228;16.398;2022-07-06T14:38:44;2.78;;;2.58;;
44854;SDS011;30591;48.228;16.398;2022-07-06T14:41:11;2.95;;;2.22;;
44854;SDS011;30591;48.228;16.398;2022-07-06T14:43:38;3.25;;;2.20;;
44854;SDS011;30591;48.228;16.398;2022-07-06T14:46:05;4.45;;;2.53;;
44854;SDS011;30591;48.228;16.398;2022-07-06T14:48:33;8.85;;;2.58;;